Vejrstation Sortsø Strand
Vejrstation Sortsø Strands historiske vejrdata
 
Daily Summary for May 18, 2021 Units:  Metric    English   Both
Daily Weekly Monthly Yearly Custom
  Current: High: Low: Average:
Temperature: 11.9 °C 12.6 °C 8.1 °C 9.8 °C
Dew Point: 8.9 °C 10.0 °C 6.7 °C 8.1 °C
Humidity: 82% 93% 82% 89%
Wind Speed: 19km/h 26km/h 0km/h 11.8km/h
Wind Gust: 17km/h 22km/h - -
WindWNW - - WNW
Pressure: 1008.5 hPa 1008.5 hPa 1004.1 hPa -
Precipitation: 1.27 mm      
Historical Graphs
 
 
Tabular Data for May 18, 2021
Time Temperature Dew Point Pressure Wind Wind Speed Wind Gust Humidity Rainfall Rate (Hourly) solar
00:04 9.1 °C 7.3 °C 1004.1 hPa Calm     89% 0.00 mm 0.00 W/m2
00:09 9.1 °C 7.5 °C 1004.1 hPa Calm     90% 0.00 mm 0.00 W/m2
00:14 9.0 °C 7.4 °C 1004.2 hPa Calm     90% 0.00 mm 0.00 W/m2
00:19 8.9 °C 7.3 °C 1004.2 hPa Calm     90% 0.00 mm 0.00 W/m2
00:24 8.8 °C 7.2 °C 1004.2 hPa Calm     90% 0.00 mm 0.00 W/m2
00:29 8.8 °C 7.2 °C 1004.3 hPa Calm     90% 0.00 mm 0.00 W/m2
00:34 8.8 °C 7.2 °C 1004.3 hPa Calm     90% 0.00 mm 0.00 W/m2
00:39 8.7 °C 7.1 °C 1004.4 hPa Calm     90% 0.00 mm 0.00 W/m2
00:44 8.4 °C 6.9 °C 1004.4 hPa Calm     90% 0.00 mm 0.00 W/m2
00:49 8.4 °C 6.8 °C 1004.4 hPa Calm     90% 0.00 mm 0.00 W/m2
00:54 8.3 °C 6.8 °C 1004.4 hPa Calm     90% 0.00 mm 0.00 W/m2
00:59 8.3 °C 6.7 °C 1004.4 hPa Calm     90% 0.00 mm 0.00 W/m2
01:04 8.3 °C 6.7 °C 1004.4 hPa Calm     90% 0.00 mm 0.00 W/m2
01:09 8.3 °C 6.9 °C 1004.4 hPa Calm     91% 0.00 mm 0.00 W/m2
01:14 8.4 °C 7.0 °C 1004.4 hPa Calm     91% 0.00 mm 0.00 W/m2
01:19 8.4 °C 7.0 °C 1004.4 hPa Calm     91% 0.00 mm 0.00 W/m2
01:24 8.3 °C 6.9 °C 1004.4 hPa Calm     91% 0.00 mm 0.00 W/m2
01:29 8.3 °C 6.9 °C 1004.4 hPa Calm     91% 0.00 mm 0.00 W/m2
01:34 8.4 °C 7.0 °C 1004.4 hPa Calm     91% 0.00 mm 0.00 W/m2
01:39 8.4 °C 7.0 °C 1004.4 hPa Calm     91% 0.00 mm 0.00 W/m2
01:44 8.4 °C 7.0 °C 1004.4 hPa Calm     91% 0.00 mm 0.00 W/m2
01:49 8.4 °C 7.0 °C 1004.4 hPa Calm     91% 0.00 mm 0.00 W/m2
01:54 8.4 °C 7.1 °C 1004.4 hPa Calm     91% 0.00 mm 0.00 W/m2
01:59 8.6 °C 7.2 °C 1004.4 hPa Calm     91% 0.00 mm 0.00 W/m2
02:04 8.6 °C 7.4 °C 1004.4 hPa Calm     92% 0.00 mm 0.00 W/m2
02:09 8.7 °C 7.4 °C 1004.5 hPa Calm     92% 0.00 mm 0.00 W/m2
02:14 8.6 °C 7.4 °C 1004.5 hPa Calm     92% 0.00 mm 0.00 W/m2
02:19 8.6 °C 7.2 °C 1004.5 hPa Calm     91% 0.00 mm 0.00 W/m2
02:24 8.6 °C 7.2 °C 1004.6 hPa Calm     91% 0.00 mm 0.00 W/m2
02:29 8.6 °C 7.2 °C 1004.5 hPa Calm     91% 0.00 mm 0.00 W/m2
02:34 8.6 °C 7.3 °C 1004.5 hPa Calm     92% 0.00 mm 0.00 W/m2
02:39 8.6 °C 7.3 °C 1004.5 hPa Calm     92% 0.00 mm 0.00 W/m2
02:44 8.5 °C 7.3 °C 1004.5 hPa Calm     92% 0.00 mm 0.00 W/m2
02:49 8.5 °C 7.3 °C 1004.5 hPa Calm     92% 0.00 mm 0.00 W/m2
02:54 8.4 °C 7.2 °C 1004.5 hPa Calm     92% 0.00 mm 0.00 W/m2
02:59 8.3 °C 7.1 °C 1004.5 hPa Calm     92% 0.00 mm 0.00 W/m2
03:04 8.3 °C 7.1 °C 1004.5 hPa Calm     92% 0.00 mm 0.00 W/m2
03:09 8.3 °C 7.1 °C 1004.6 hPa Calm     92% 0.00 mm 0.00 W/m2
03:14 8.2 °C 6.9 °C 1004.6 hPa Calm     92% 0.00 mm 0.00 W/m2
03:19 8.2 °C 6.9 °C 1004.6 hPa Calm     92% 0.00 mm 0.00 W/m2
03:24 8.2 °C 6.9 °C 1004.6 hPa Calm     92% 0.00 mm 0.00 W/m2
03:29 8.3 °C 7.1 °C 1004.6 hPa Calm     92% 0.00 mm 0.00 W/m2
03:34 8.3 °C 7.1 °C 1004.6 hPa Calm     92% 0.00 mm 0.00 W/m2
03:39 8.3 °C 7.1 °C 1004.7 hPa Calm     92% 0.00 mm 0.00 W/m2
03:44 8.2 °C 7.0 °C 1004.8 hPa NW 2 km/h   92% 0.00 mm 0.00 W/m2
03:49 8.2 °C 7.0 °C 1004.8 hPa NW 4 km/h 1 km/h 92% 0.00 mm 0.00 W/m2
03:54 8.2 °C 6.9 °C 1004.9 hPa Calm     92% 0.00 mm 0.00 W/m2
03:59 8.1 °C 6.9 °C 1004.8 hPa Calm     92% 0.00 mm 0.00 W/m2
04:04 8.1 °C 6.9 °C 1004.9 hPa Calm     92% 0.00 mm 0.00 W/m2
04:09 8.2 °C 6.9 °C 1004.9 hPa Calm     92% 0.00 mm 0.00 W/m2
04:14 8.3 °C 7.1 °C 1005.0 hPa Calm     92% 0.00 mm 0.00 W/m2
04:19 8.6 °C 7.3 °C 1005.1 hPa Calm     92% 0.00 mm 0.00 W/m2
04:24 8.8 °C 7.6 °C 1005.1 hPa Calm     92% 0.00 mm 0.00 W/m2
04:29 9.1 °C 7.9 °C 1005.1 hPa Calm     93% 0.00 mm 0.00 W/m2
04:34 9.2 °C 8.2 °C 1005.2 hPa NW 6 km/h 2 km/h 93% 0.00 mm 0.00 W/m2
04:39 9.4 °C 8.3 °C 1005.1 hPa NW 6 km/h 1 km/h 93% 0.00 mm 0.00 W/m2
04:44 9.5 °C 8.4 °C 1005.1 hPa Calm     93% 0.00 mm 0.00 W/m2
04:49 9.6 °C 8.6 °C 1005.2 hPa Calm     93% 0.00 mm 0.00 W/m2
04:54 9.8 °C 8.7 °C 1005.3 hPa NW 6 km/h 3 km/h 93% 0.00 mm 0.00 W/m2
04:59 9.8 °C 8.8 °C 1005.3 hPa NW 10 km/h 5 km/h 93% 0.00 mm 0.00 W/m2
05:04 9.9 °C 8.9 °C 1005.3 hPa NW 8 km/h 6 km/h 93% 0.00 mm 0.00 W/m2
05:09 10.0 °C 8.9 °C 1005.4 hPa NW 8 km/h 6 km/h 93% 0.00 mm 0.00 W/m2
05:14 10.1 °C 9.0 °C 1005.4 hPa NW 11 km/h 6 km/h 93% 0.00 mm 0.00 W/m2
05:19 10.2 °C 9.1 °C 1005.4 hPa NW 11 km/h 8 km/h 93% 0.00 mm 0.00 W/m2
05:24 10.2 °C 9.1 °C 1005.4 hPa NW 10 km/h 5 km/h 93% 0.00 mm 0.00 W/m2
05:29 10.2 °C 9.1 °C 1005.5 hPa NW 10 km/h 6 km/h 93% 0.00 mm 0.00 W/m2
05:34 10.2 °C 8.9 °C 1005.5 hPa NW 10 km/h 7 km/h 92% 0.00 mm 0.00 W/m2
05:39 10.2 °C 9.0 °C 1005.6 hPa NW 8 km/h 5 km/h 92% 0.00 mm 0.00 W/m2
05:44 10.2 °C 9.0 °C 1005.6 hPa NW 11 km/h 9 km/h 92% 0.00 mm 0.00 W/m2
05:49 10.3 °C 9.1 °C 1005.7 hPa NW 17 km/h 10 km/h 92% 0.25 mm 0.00 W/m2
05:54 10.2 °C 9.0 °C 1005.7 hPa WNW 11 km/h 7 km/h 92% 0.25 mm 0.00 W/m2
05:59 10.2 °C 9.0 °C 1005.8 hPa WNW 15 km/h 8 km/h 92% 0.25 mm 0.00 W/m2
06:04 10.2 °C 8.9 °C 1005.9 hPa WNW 15 km/h 10 km/h 92% 0.25 mm 0.00 W/m2
06:09 10.1 °C 8.9 °C 1005.9 hPa WNW 13 km/h 9 km/h 92% 0.25 mm 0.00 W/m2
06:14 10.1 °C 8.8 °C 1005.9 hPa WNW 16 km/h 9 km/h 92% 0.25 mm 0.00 W/m2
06:19 10.0 °C 8.6 °C 1006.0 hPa WNW 17 km/h 10 km/h 91% 0.25 mm 0.00 W/m2
06:24 10.0 °C 8.6 °C 1006.0 hPa WNW 17 km/h 9 km/h 91% 0.25 mm 0.00 W/m2
06:29 9.9 °C 8.6 °C 1006.1 hPa WNW 21 km/h 11 km/h 91% 0.25 mm 0.00 W/m2
06:34 9.9 °C 8.5 °C 1006.1 hPa WNW 15 km/h 9 km/h 91% 0.25 mm 0.00 W/m2
06:39 9.9 °C 8.5 °C 1006.1 hPa WNW 17 km/h 9 km/h 91% 0.25 mm 0.00 W/m2
06:44 9.9 °C 8.6 °C 1006.1 hPa WNW 15 km/h 9 km/h 91% 0.25 mm 0.00 W/m2
06:49 9.9 °C 8.6 °C 1006.3 hPa WNW 17 km/h 8 km/h 91% 0.25 mm 0.00 W/m2
06:54 9.9 °C 8.4 °C 1006.3 hPa WNW 19 km/h 9 km/h 90% 0.00 mm 0.00 W/m2
06:59 9.9 °C 8.4 °C 1006.4 hPa West 19 km/h 11 km/h 90% 0.00 mm 0.00 W/m2
07:04 9.8 °C 8.3 °C 1006.5 hPa West 19 km/h 10 km/h 90% 0.00 mm 0.00 W/m2
07:09 9.7 °C 8.2 °C 1006.5 hPa West 15 km/h 8 km/h 90% 0.00 mm 0.00 W/m2
07:14 9.7 °C 8.1 °C 1006.6 hPa WNW 15 km/h 8 km/h 90% 0.00 mm 0.00 W/m2
07:19 9.6 °C 8.0 °C 1006.6 hPa WNW 19 km/h 9 km/h 90% 0.00 mm 0.00 W/m2
07:24 9.4 °C 7.9 °C 1006.6 hPa West 17 km/h 9 km/h 90% 0.00 mm 0.00 W/m2
07:29 9.4 °C 7.8 °C 1006.7 hPa WNW 17 km/h 12 km/h 90% 0.00 mm 0.00 W/m2
07:34 9.3 °C 7.8 °C 1006.7 hPa WNW 19 km/h 12 km/h 90% 0.00 mm 0.00 W/m2
07:39 9.3 °C 7.7 °C 1006.8 hPa West 19 km/h 13 km/h 90% 0.00 mm 0.00 W/m2
07:44 9.2 °C 7.6 °C 1006.8 hPa West 21 km/h 12 km/h 90% 0.00 mm 0.00 W/m2
07:49 9.2 °C 7.6 °C 1006.9 hPa WNW 19 km/h 12 km/h 90% 0.25 mm 0.00 W/m2
07:54 9.1 °C 7.6 °C 1006.9 hPa WNW 19 km/h 12 km/h 90% 0.51 mm 0.00 W/m2
07:59 9.1 °C 7.5 °C 1007.0 hPa WNW 19 km/h 11 km/h 90% 0.76 mm 0.00 W/m2
08:04 8.9 °C 7.4 °C 1007.0 hPa WNW 19 km/h 11 km/h 90% 0.76 mm 0.00 W/m2
08:09 8.8 °C 7.3 °C 1007.1 hPa WNW 17 km/h 11 km/h 90% 0.76 mm 0.00 W/m2
08:14 8.8 °C 7.2 °C 1007.1 hPa WNW 19 km/h 9 km/h 90% 0.76 mm 0.00 W/m2
08:19 8.7 °C 7.2 °C 1007.2 hPa WNW 17 km/h 11 km/h 90% 0.76 mm 0.00 W/m2
08:24 8.7 °C 7.2 °C 1007.2 hPa WNW 19 km/h 11 km/h 90% 1.02 mm 0.00 W/m2
08:29 8.7 °C 7.2 °C 1007.2 hPa West 19 km/h 10 km/h 90% 1.02 mm 0.00 W/m2
08:34 8.8 °C 7.2 °C 1007.3 hPa West 18 km/h 10 km/h 90% 1.02 mm 0.00 W/m2
08:39 8.9 °C 7.3 °C 1007.3 hPa WNW 19 km/h 12 km/h 90% 1.02 mm 0.00 W/m2
08:44 9.1 °C 7.5 °C 1007.5 hPa WNW 17 km/h 13 km/h 90% 1.02 mm 0.00 W/m2
08:49 9.2 °C 7.4 °C 1007.5 hPa WNW 19 km/h 11 km/h 89% 1.02 mm 0.00 W/m2
08:54 9.3 °C 7.6 °C 1007.5 hPa WNW 15 km/h 10 km/h 89% 0.76 mm 0.00 W/m2
08:59 9.4 °C 7.6 °C 1007.5 hPa WNW 15 km/h 9 km/h 89% 0.51 mm 0.00 W/m2
09:04 9.6 °C 7.7 °C 1007.6 hPa West 19 km/h 11 km/h 88% 0.25 mm 0.00 W/m2
09:09 9.7 °C 7.8 °C 1007.6 hPa WNW 19 km/h 14 km/h 88% 0.25 mm 0.00 W/m2
09:14 9.8 °C 7.8 °C 1007.7 hPa WNW 19 km/h 12 km/h 87% 0.25 mm 0.00 W/m2
09:19 9.9 °C 7.8 °C 1007.7 hPa WNW 19 km/h 13 km/h 87% 0.25 mm 0.00 W/m2
09:24 10.0 °C 7.8 °C 1007.8 hPa WNW 17 km/h 11 km/h 86% 0.00 mm 0.00 W/m2
09:29 10.4 °C 8.3 °C 1007.7 hPa WNW 23 km/h 16 km/h 87% 0.00 mm 0.00 W/m2
09:34 10.7 °C 8.4 °C 1007.8 hPa WNW 19 km/h 12 km/h 86% 0.00 mm 0.00 W/m2
09:39 10.9 °C 8.4 °C 1007.9 hPa WNW 19 km/h 14 km/h 85% 0.00 mm 0.00 W/m2
09:44 11.0 °C 8.6 °C 1007.9 hPa WNW 19 km/h 12 km/h 85% 0.00 mm 0.00 W/m2
09:49 11.1 °C 8.7 °C 1008.0 hPa West 24 km/h 17 km/h 85% 0.00 mm 0.00 W/m2
09:54 11.1 °C 8.3 °C 1008.1 hPa West 24 km/h 15 km/h 83% 0.00 mm 0.00 W/m2
09:59 10.9 °C 8.2 °C 1008.0 hPa WNW 24 km/h 12 km/h 83% 0.00 mm 0.00 W/m2
10:04 10.8 °C 8.0 °C 1008.0 hPa WNW 19 km/h 11 km/h 84% 0.00 mm 0.00 W/m2
10:09 10.7 °C 8.2 °C 1008.0 hPa West 21 km/h 11 km/h 85% 0.00 mm 0.00 W/m2
10:14 10.9 °C 8.3 °C 1008.0 hPa West 17 km/h 10 km/h 85% 0.00 mm 0.00 W/m2
10:19 11.1 °C 8.5 °C 1008.0 hPa West 23 km/h 11 km/h 84% 0.00 mm 0.00 W/m2
10:24 11.2 °C 8.6 °C 1008.1 hPa WNW 23 km/h 9 km/h 84% 0.00 mm 0.00 W/m2
10:29 11.3 °C 8.7 °C 1008.1 hPa West 22 km/h 9 km/h 84% 0.00 mm 0.00 W/m2
10:34 11.6 °C 8.9 °C 1008.2 hPa WNW 19 km/h 11 km/h 84% 0.00 mm 0.00 W/m2
10:39 12.1 °C 9.4 °C 1008.2 hPa NW 20 km/h 14 km/h 84% 0.00 mm 0.00 W/m2
10:44 12.3 °C 9.5 °C 1008.2 hPa NW 21 km/h 17 km/h 83% 0.00 mm 0.00 W/m2
10:49 12.2 °C 9.2 °C 1008.2 hPa WNW 21 km/h 17 km/h 82% 0.00 mm 0.00 W/m2
10:54 12.1 °C 9.1 °C 1008.2 hPa NW 21 km/h 19 km/h 82% 0.00 mm 0.00 W/m2
10:59 11.9 °C 9.1 °C 1008.2 hPa NW 24 km/h 21 km/h 83% 0.00 mm 0.00 W/m2
11:04 11.8 °C 9.0 °C 1008.2 hPa NW 26 km/h 19 km/h 83% 0.00 mm 0.00 W/m2
11:09 11.8 °C 9.1 °C 1008.3 hPa NW 26 km/h 22 km/h 83% 0.00 mm 0.00 W/m2
11:14 11.8 °C 9.0 °C 1008.3 hPa WNW 26 km/h 19 km/h 83% 0.00 mm 0.00 W/m2
11:19 11.9 °C 9.1 °C 1008.3 hPa WNW 26 km/h 21 km/h 83% 0.00 mm 0.00 W/m2
11:24 12.0 °C 9.2 °C 1008.3 hPa WNW 26 km/h 20 km/h 83% 0.00 mm 0.00 W/m2
11:29 12.2 °C 9.6 °C 1008.3 hPa WNW 26 km/h 22 km/h 84% 0.00 mm 0.00 W/m2
11:34 12.2 °C 9.4 °C 1008.2 hPa WNW 22 km/h 19 km/h 84% 0.00 mm 0.00 W/m2
11:39 12.1 °C 9.3 °C 1008.2 hPa NW 24 km/h 20 km/h 83% 0.00 mm 0.00 W/m2
11:44 12.0 °C 9.2 °C 1008.3 hPa WNW 23 km/h 20 km/h 83% 0.00 mm 0.00 W/m2
11:49 12.0 °C 9.2 °C 1008.3 hPa WNW 21 km/h 20 km/h 83% 0.00 mm 0.00 W/m2
11:54 12.2 °C 9.6 °C 1008.3 hPa WNW 19 km/h 18 km/h 84% 0.00 mm 0.00 W/m2
11:59 12.2 °C 9.6 °C 1008.3 hPa WNW 19 km/h 18 km/h 84% 0.00 mm 0.00 W/m2
12:04 12.2 °C 9.6 °C 1008.3 hPa WNW 19 km/h 17 km/h 84% 0.00 mm 0.00 W/m2
12:09 12.3 °C 9.6 °C 1008.3 hPa NW 19 km/h 18 km/h 84% 0.00 mm 0.00 W/m2
12:14 12.3 °C 9.7 °C 1008.4 hPa NW 19 km/h 18 km/h 84% 0.00 mm 0.00 W/m2
12:19 12.4 °C 9.8 °C 1008.3 hPa NW 19 km/h 17 km/h 84% 0.00 mm 0.00 W/m2
12:24 12.5 °C 9.9 °C 1008.3 hPa NW 19 km/h 19 km/h 84% 0.00 mm 0.00 W/m2
12:29 12.6 °C 10.0 °C 1008.3 hPa NW 24 km/h 21 km/h 84% 0.00 mm 0.00 W/m2
12:34 12.6 °C 9.7 °C 1008.4 hPa NW 22 km/h 18 km/h 83% 0.00 mm 0.00 W/m2
12:39 12.4 °C 9.4 °C 1008.4 hPa WNW 23 km/h 17 km/h 82% 0.00 mm 0.00 W/m2
12:44 12.1 °C 9.3 °C 1008.4 hPa WNW 19 km/h 16 km/h 83% 0.00 mm 0.00 W/m2
12:49 12.1 °C 9.4 °C 1008.4 hPa WNW 19 km/h 15 km/h 84% 0.00 mm 0.00 W/m2
12:54 12.2 °C 9.4 °C 1008.4 hPa WNW 19 km/h 16 km/h 83% 0.00 mm 0.00 W/m2
12:59 12.2 °C 9.4 °C 1008.5 hPa WNW 24 km/h 19 km/h 83% 0.00 mm 0.00 W/m2
13:04 12.1 °C 9.3 °C 1008.5 hPa WNW 22 km/h 17 km/h 83% 0.00 mm 0.00 W/m2
13:09 11.9 °C 8.9 °C 1008.5 hPa WNW 19 km/h 17 km/h 82% 0.00 mm 0.00 W/m2
Vejrstation Sortsø Strand
Compliments of Weather Underground - 1.5 mb

© 2006-2021 strandvejr.dk